createdAt,value
2019-02-28T00:00:55.595Z,7.43
2019-02-28T00:03:27.808Z,6.43
2019-02-28T00:06:03.017Z,7.40
2019-02-28T00:08:36.433Z,6.33
2019-02-28T00:11:09.545Z,6.60
2019-02-28T00:13:43.376Z,10.13
2019-02-28T00:16:15.319Z,7.67
2019-02-28T00:18:50.555Z,12.73
2019-02-28T00:21:25.070Z,10.80
2019-02-28T00:23:57.558Z,11.10
2019-02-28T00:26:29.399Z,13.90
2019-02-28T00:29:03.349Z,14.03
2019-02-28T00:31:36.935Z,8.40
2019-02-28T00:34:08.450Z,14.40
2019-02-28T00:36:44.774Z,9.20
2019-02-28T00:39:19.835Z,12.33
2019-02-28T00:41:51.635Z,13.23
2019-02-28T00:44:30.464Z,12.63
2019-02-28T00:47:00.245Z,14.77
2019-02-28T00:49:32.791Z,7.93
2019-02-28T00:52:07.294Z,10.80
2019-02-28T00:54:43.202Z,9.03
2019-02-28T00:57:12.559Z,8.10
2019-02-28T00:59:46.150Z,8.17
2019-02-28T01:02:19.387Z,8.33
2019-02-28T01:04:52.541Z,8.83
2019-02-28T01:07:24.764Z,13.47
2019-02-28T01:09:57.818Z,6.57
2019-02-28T01:12:30.596Z,8.83
2019-02-28T01:15:07.172Z,12.50
2019-02-28T01:17:39.812Z,8.93
2019-02-28T01:20:16.044Z,10.07
2019-02-28T01:22:48.588Z,5.57
2019-02-28T01:25:22.857Z,7.97
2019-02-28T01:27:54.785Z,11.87
2019-02-28T01:30:26.900Z,9.10
2019-02-28T01:32:59.751Z,10.63
2019-02-28T01:35:33.046Z,11.60
2019-02-28T01:38:07.648Z,7.03
2019-02-28T01:40:40.770Z,7.60
2019-02-28T01:43:13.121Z,8.10
2019-02-28T01:45:46.788Z,6.30
2019-02-28T01:48:18.844Z,6.30
2019-02-28T01:50:51.865Z,8.63
2019-02-28T01:53:24.825Z,6.40
2019-02-28T01:55:56.934Z,4.73
2019-02-28T01:58:29.938Z,8.67
2019-02-28T02:01:02.135Z,13.63
2019-02-28T02:03:33.710Z,8.07
2019-02-28T02:06:06.947Z,5.90
2019-02-28T02:08:39.893Z,6.50
2019-02-28T02:11:13.129Z,6.97
2019-02-28T02:13:45.980Z,9.53
2019-02-28T02:16:18.949Z,7.20
2019-02-28T02:18:52.836Z,8.20
2019-02-28T02:21:25.983Z,9.17
2019-02-28T02:23:57.983Z,8.17
2019-02-28T02:26:30.852Z,11.33
2019-02-28T02:29:04.055Z,9.37
2019-02-28T02:31:36.846Z,11.87
2019-02-28T02:34:09.980Z,8.07
2019-02-28T02:36:45.008Z,7.77
2019-02-28T02:39:18.010Z,13.17
2019-02-28T02:41:52.017Z,12.40
2019-02-28T02:44:23.404Z,6.97
2019-02-28T02:46:56.027Z,8.63
2019-02-28T02:49:30.164Z,12.00
2019-02-28T02:52:04.250Z,9.43
2019-02-28T02:54:37.805Z,11.43
2019-02-28T02:57:09.054Z,25.53
2019-02-28T02:59:42.218Z,15.17
2019-02-28T03:02:15.864Z,9.10
2019-02-28T03:04:50.009Z,11.13
2019-02-28T03:07:24.506Z,11.90
2019-02-28T03:09:57.503Z,14.10
2019-02-28T03:12:31.575Z,10.23
2019-02-28T03:15:04.975Z,12.90
2019-02-28T03:17:36.364Z,8.97
2019-02-28T03:20:10.740Z,13.47
2019-02-28T03:22:42.130Z,12.13
2019-02-28T03:25:15.638Z,20.03
2019-02-28T03:27:55.122Z,10.43
2019-02-28T03:30:29.283Z,13.50
2019-02-28T03:32:55.311Z,14.47
2019-02-28T03:35:40.042Z,12.73
2019-02-28T03:38:00.426Z,17.97
2019-02-28T03:40:39.883Z,16.23
2019-02-28T03:43:07.006Z,10.43
2019-02-28T03:45:40.098Z,14.03
2019-02-28T03:48:12.257Z,14.33
2019-02-28T03:50:45.413Z,16.40
2019-02-28T03:53:20.107Z,18.30
2019-02-28T03:55:51.392Z,15.70
2019-02-28T03:58:25.431Z,17.60
2019-02-28T04:00:58.467Z,16.50
2019-02-28T04:03:34.806Z,19.37
2019-02-28T04:06:06.411Z,25.20
2019-02-28T04:08:39.597Z,16.73
2019-02-28T04:11:12.583Z,22.43
2019-02-28T04:13:47.013Z,18.93
2019-02-28T04:16:18.462Z,21.93
2019-02-28T04:18:51.538Z,18.60
2019-02-28T04:21:24.469Z,19.97
2019-02-28T04:23:59.295Z,23.70
2019-02-28T04:26:31.789Z,19.57
2019-02-28T04:29:03.473Z,14.40
2019-02-28T04:31:36.412Z,26.13
2019-02-28T04:34:13.027Z,14.63
2019-02-28T04:36:46.472Z,15.77
2019-02-28T04:39:22.824Z,18.20
2019-02-28T04:41:55.569Z,16.47
2019-02-28T04:44:27.649Z,16.17
2019-02-28T04:47:03.470Z,16.50
2019-02-28T04:49:33.856Z,18.40
2019-02-28T04:52:06.638Z,21.20
2019-02-28T04:54:40.069Z,17.77
2019-02-28T04:57:11.807Z,17.80
2019-02-28T04:59:46.645Z,14.40
2019-02-28T05:02:19.932Z,17.37
2019-02-28T05:04:56.538Z,16.03
2019-02-28T05:07:30.415Z,20.80
2019-02-28T05:10:03.828Z,25.17
2019-02-28T05:12:39.999Z,18.90
2019-02-28T05:15:13.344Z,18.03
2019-02-28T05:17:47.347Z,22.37
2019-02-28T05:20:19.141Z,21.77
2019-02-28T05:22:54.459Z,18.87
2019-02-28T05:25:27.771Z,19.17
2019-02-28T05:28:00.759Z,23.53
2019-02-28T05:30:32.711Z,22.03
2019-02-28T05:33:06.616Z,16.17
2019-02-28T05:35:39.720Z,14.77
2019-02-28T05:38:10.923Z,22.00
2019-02-28T05:40:43.131Z,19.80
2019-02-28T05:43:15.860Z,16.30
2019-02-28T05:45:49.684Z,16.70
2019-02-28T05:48:22.098Z,12.43
2019-02-28T05:50:54.836Z,13.03
2019-02-28T05:53:26.997Z,9.40
2019-02-28T05:55:59.836Z,8.40
2019-02-28T05:58:33.305Z,9.33
2019-02-28T06:01:05.640Z,10.47
2019-02-28T06:03:37.372Z,7.50
2019-02-28T06:06:09.697Z,8.70
2019-02-28T06:08:41.325Z,8.70
2019-02-28T06:11:15.396Z,9.60
2019-02-28T06:13:49.593Z,8.50
2019-02-28T06:16:21.106Z,6.70
2019-02-28T06:18:53.099Z,11.30
2019-02-28T06:21:26.123Z,9.70
2019-02-28T06:23:59.437Z,5.90
2019-02-28T06:26:31.780Z,10.00
2019-02-28T06:29:04.940Z,8.03
2019-02-28T06:31:37.044Z,7.30
2019-02-28T06:34:10.080Z,9.90
2019-02-28T06:36:43.023Z,7.20
2019-02-28T06:39:18.344Z,6.30
2019-02-28T06:41:52.927Z,12.87
2019-02-28T06:44:27.754Z,6.03
2019-02-28T06:47:01.080Z,11.50
2019-02-28T06:49:33.658Z,12.83
2019-02-28T06:52:07.170Z,7.33
2019-02-28T06:54:41.128Z,8.30
2019-02-28T06:57:13.378Z,8.83
2019-02-28T06:59:45.299Z,7.57
2019-02-28T07:02:17.270Z,9.00
2019-02-28T07:04:50.582Z,10.40
2019-02-28T07:07:22.093Z,12.27
2019-02-28T07:09:55.378Z,9.47
2019-02-28T07:12:29.771Z,8.60
2019-02-28T07:15:02.579Z,8.00
2019-02-28T07:17:33.957Z,8.13
2019-02-28T07:20:09.663Z,9.20
2019-02-28T07:22:43.385Z,10.93
2019-02-28T07:25:16.504Z,10.77
2019-02-28T07:27:52.522Z,9.53
2019-02-28T07:30:27.950Z,18.70
2019-02-28T07:33:00.428Z,16.03
2019-02-28T07:35:36.707Z,12.00
2019-02-28T07:38:07.350Z,13.70
2019-02-28T07:40:40.372Z,11.57
2019-02-28T07:43:14.282Z,15.37
2019-02-28T07:45:46.656Z,12.20
2019-02-28T07:48:19.460Z,16.20
2019-02-28T07:50:53.010Z,16.30
2019-02-28T07:53:28.099Z,15.30
2019-02-28T07:55:59.473Z,11.37
2019-02-28T07:58:33.412Z,13.03
2019-02-28T08:01:04.416Z,22.43
2019-02-28T08:03:37.542Z,18.80
2019-02-28T08:06:08.746Z,18.00
2019-02-28T08:08:42.284Z,17.67
2019-02-28T08:11:14.936Z,11.93
2019-02-28T08:13:48.570Z,14.97
2019-02-28T08:16:24.427Z,14.97
2019-02-28T08:18:57.531Z,14.30
2019-02-28T08:21:31.603Z,19.30
2019-02-28T08:24:06.367Z,11.60
2019-02-28T08:26:40.687Z,12.83
2019-02-28T08:29:15.739Z,13.83
2019-02-28T08:31:49.275Z,13.00
2019-02-28T08:34:23.855Z,16.80
2019-02-28T08:36:54.631Z,16.23
2019-02-28T08:39:27.641Z,12.27
2019-02-28T08:42:04.336Z,17.00
2019-02-28T08:44:33.858Z,14.47
2019-02-28T08:47:06.787Z,11.73
2019-02-28T08:49:44.588Z,19.53
2019-02-28T08:52:15.718Z,17.90
2019-02-28T08:54:49.087Z,13.93
2019-02-28T08:57:21.954Z,11.30
2019-02-28T08:59:57.195Z,15.97
2019-02-28T09:02:30.413Z,11.93
2019-02-28T09:05:03.937Z,16.53
2019-02-28T09:07:35.293Z,11.13
2019-02-28T09:10:11.847Z,12.70
2019-02-28T09:12:43.301Z,12.50
2019-02-28T09:15:16.409Z,10.90
2019-02-28T09:17:50.324Z,20.00
2019-02-28T09:20:21.779Z,17.87
2019-02-28T09:22:54.884Z,20.47
2019-02-28T09:25:29.726Z,18.80
2019-02-28T09:28:03.978Z,18.17
2019-02-28T09:30:38.840Z,16.40
2019-02-28T09:33:14.539Z,17.53
2019-02-28T09:35:46.566Z,11.77
2019-02-28T09:38:18.842Z,11.43
2019-02-28T09:40:51.910Z,13.93
2019-02-28T09:43:25.424Z,15.40
2019-02-28T09:45:57.992Z,14.77
2019-02-28T09:48:33.990Z,14.50
2019-02-28T09:51:04.139Z,15.00
2019-02-28T09:53:38.160Z,12.13
2019-02-28T09:56:10.189Z,14.93
2019-02-28T09:58:43.424Z,15.63
2019-02-28T10:01:15.967Z,13.80
2019-02-28T10:03:52.283Z,18.87
2019-02-28T10:06:25.723Z,19.80
2019-02-28T10:08:59.345Z,13.43
2019-02-28T10:11:32.581Z,15.27
2019-02-28T10:14:06.353Z,18.23
2019-02-28T10:16:40.034Z,20.90
2019-02-28T10:19:15.489Z,18.73
2019-02-28T10:21:51.817Z,21.80
2019-02-28T10:24:22.170Z,24.30
2019-02-28T10:26:54.327Z,22.13
2019-02-28T10:29:27.409Z,17.20
2019-02-28T10:32:01.365Z,15.90
2019-02-28T10:34:35.423Z,21.53
2019-02-28T10:37:09.166Z,22.53
2019-02-28T10:39:43.158Z,26.67
2019-02-28T10:42:16.328Z,25.67
2019-02-28T10:44:50.410Z,30.93
2019-02-28T10:47:28.157Z,21.97
2019-02-28T10:49:58.870Z,25.83
2019-02-28T10:52:31.244Z,22.80
2019-02-28T10:55:05.564Z,19.23
2019-02-28T10:57:40.639Z,27.80
2019-02-28T11:00:24.099Z,25.10
2019-02-28T11:03:01.248Z,37.43
2019-02-28T11:05:34.645Z,22.40
2019-02-28T11:08:09.656Z,24.03
2019-02-28T11:10:45.685Z,23.70
2019-02-28T11:13:20.191Z,22.00
2019-02-28T11:15:55.812Z,20.60
2019-02-28T11:18:28.381Z,22.37
2019-02-28T11:21:02.934Z,26.07
2019-02-28T11:23:34.184Z,23.13
2019-02-28T11:26:09.526Z,29.03
2019-02-28T11:28:45.150Z,46.43
2019-02-28T11:31:19.991Z,24.60
2019-02-28T11:33:52.573Z,23.97
2019-02-28T11:36:26.614Z,19.87
2019-02-28T11:38:59.422Z,19.63
2019-02-28T11:41:33.154Z,27.70
2019-02-28T11:44:04.634Z,18.20
2019-02-28T11:46:37.691Z,29.70
2019-02-28T11:49:09.582Z,28.40
2019-02-28T11:51:41.104Z,18.80
2019-02-28T11:54:15.805Z,25.63
2019-02-28T11:56:49.755Z,24.13
2019-02-28T11:59:24.096Z,36.57
2019-02-28T12:01:55.585Z,29.63
2019-02-28T12:04:28.371Z,24.40
2019-02-28T12:07:00.961Z,28.43
2019-02-28T12:09:34.038Z,27.90
2019-02-28T12:12:07.313Z,31.33
2019-02-28T12:14:40.984Z,32.90
2019-02-28T12:17:15.180Z,21.40
2019-02-28T12:19:47.578Z,27.80
2019-02-28T12:22:19.611Z,24.40
2019-02-28T12:24:55.204Z,22.60
2019-02-28T12:27:27.589Z,24.13
2019-02-28T12:29:59.936Z,22.70
2019-02-28T12:32:32.820Z,19.23
2019-02-28T12:35:06.478Z,21.53
2019-02-28T12:37:39.024Z,48.53
2019-02-28T12:40:14.274Z,33.17
2019-02-28T12:42:47.114Z,25.73
2019-02-28T12:45:24.491Z,29.10
2019-02-28T12:47:56.543Z,21.67
2019-02-28T12:50:30.382Z,21.63
2019-02-28T12:53:02.317Z,27.23
2019-02-28T12:55:35.435Z,28.40
2019-02-28T12:58:07.956Z,22.40
2019-02-28T13:00:40.937Z,27.73
2019-02-28T13:03:19.243Z,27.10
2019-02-28T13:05:47.997Z,27.23
2019-02-28T13:08:19.892Z,31.30
2019-02-28T13:10:53.053Z,30.60
2019-02-28T13:13:28.794Z,32.10
2019-02-28T13:16:02.310Z,53.33
2019-02-28T13:18:34.361Z,24.03
2019-02-28T13:21:10.487Z,22.30
2019-02-28T13:23:40.976Z,19.20
2019-02-28T13:26:14.004Z,20.60
2019-02-28T13:28:47.001Z,22.67
2019-02-28T13:31:20.401Z,28.73
2019-02-28T13:33:53.705Z,22.90
2019-02-28T13:36:28.207Z,26.00
2019-02-28T13:39:01.287Z,17.97
2019-02-28T13:41:33.871Z,33.03
2019-02-28T13:44:06.995Z,21.33
2019-02-28T13:46:38.417Z,37.03
2019-02-28T13:49:12.107Z,18.30
2019-02-28T13:51:45.541Z,22.10
2019-02-28T13:54:19.982Z,21.53
2019-02-28T13:56:52.158Z,24.53
2019-02-28T13:59:25.340Z,18.50
2019-02-28T14:01:59.178Z,18.73
2019-02-28T14:04:34.120Z,23.63
2019-02-28T14:07:09.238Z,23.17
2019-02-28T14:09:43.701Z,34.10
2019-02-28T14:12:16.993Z,22.50
2019-02-28T14:14:50.366Z,35.93
2019-02-28T14:17:23.309Z,23.37
2019-02-28T14:19:55.384Z,30.10
2019-02-28T14:22:28.589Z,27.63
2019-02-28T14:25:04.977Z,32.77
2019-02-28T14:27:36.633Z,19.60
2019-02-28T14:30:10.220Z,29.07
2019-02-28T14:32:44.087Z,23.37
2019-02-28T14:35:17.164Z,37.43
2019-02-28T14:37:51.895Z,41.47
2019-02-28T14:40:24.397Z,25.60
2019-02-28T14:42:58.383Z,30.27
2019-02-28T14:45:30.388Z,24.63
2019-02-28T14:48:05.206Z,30.93
2019-02-28T14:50:37.672Z,27.60
2019-02-28T14:53:14.377Z,42.70
2019-02-28T14:55:46.425Z,27.87
2019-02-28T14:58:22.450Z,24.27
2019-02-28T15:00:55.512Z,36.93
2019-02-28T15:03:27.420Z,31.23
2019-02-28T15:06:03.008Z,31.43
2019-02-28T15:08:34.825Z,28.50
2019-02-28T15:11:10.279Z,31.27
2019-02-28T15:13:40.880Z,30.40
2019-02-28T15:16:13.459Z,31.53
2019-02-28T15:18:47.741Z,30.10
2019-02-28T15:21:22.423Z,33.00
2019-02-28T15:23:56.376Z,29.70
2019-02-28T15:26:33.001Z,29.83
2019-02-28T15:29:06.278Z,37.60
2019-02-28T15:31:43.434Z,36.93
2019-02-28T15:34:14.114Z,41.67
2019-02-28T15:36:47.523Z,40.30
2019-02-28T15:39:23.528Z,40.10
2019-02-28T15:41:55.711Z,34.87
2019-02-28T15:44:29.122Z,28.83
2019-02-28T15:47:03.549Z,38.20
2019-02-28T15:49:34.791Z,32.90
2019-02-28T15:52:08.930Z,41.60
2019-02-28T15:54:40.900Z,30.57
2019-02-28T15:57:13.699Z,41.83
2019-02-28T15:59:49.788Z,30.37
2019-02-28T16:02:21.684Z,35.73
2019-02-28T16:04:57.651Z,37.73
2019-02-28T16:07:33.481Z,29.97
2019-02-28T16:10:09.712Z,35.13
2019-02-28T16:12:46.593Z,30.90
2019-02-28T16:15:21.345Z,42.60
2019-02-28T16:17:52.777Z,32.23
2019-02-28T16:20:28.645Z,34.43
2019-02-28T16:23:02.521Z,42.27
2019-02-28T16:25:34.956Z,34.30
2019-02-28T16:28:08.991Z,34.57
2019-02-28T16:30:40.945Z,35.73
2019-02-28T16:33:15.568Z,31.87
2019-02-28T16:35:50.057Z,31.33
2019-02-28T16:38:20.783Z,36.83
2019-02-28T16:40:53.129Z,34.60
2019-02-28T16:43:26.060Z,30.33
2019-02-28T16:45:58.981Z,28.07
2019-02-28T16:48:33.415Z,29.60
2019-02-28T16:51:06.177Z,31.27
2019-02-28T16:53:38.126Z,31.33
2019-02-28T16:56:12.292Z,30.50
2019-02-28T16:58:44.449Z,25.27
2019-02-28T17:01:17.584Z,27.77
2019-02-28T17:03:52.160Z,35.57
2019-02-28T17:06:25.643Z,28.70
2019-02-28T17:09:13.255Z,27.87
2019-02-28T17:12:00.436Z,32.20
2019-02-28T17:14:33.076Z,66.77
2019-02-28T17:17:24.593Z,69.03
2019-02-28T17:19:58.975Z,30.80
2019-02-28T17:22:32.817Z,31.20
2019-02-28T17:25:06.099Z,30.43
2019-02-28T17:27:49.237Z,47.30
2019-02-28T17:30:38.718Z,29.97
2019-02-28T17:33:11.393Z,29.20
2019-02-28T17:35:45.015Z,26.73
2019-02-28T17:38:18.167Z,24.17
2019-02-28T17:40:53.420Z,28.00
2019-02-28T17:43:42.970Z,29.20
2019-02-28T17:46:16.167Z,29.47
2019-02-28T17:49:45.323Z,27.43
2019-02-28T17:52:26.415Z,25.00
2019-02-28T17:56:03.895Z,26.37
2019-02-28T17:59:09.998Z,25.50
2019-02-28T18:02:20.737Z,30.40
2019-02-28T18:05:37.408Z,20.23
2019-02-28T18:08:22.670Z,20.10
2019-02-28T18:11:48.366Z,30.33
2019-02-28T18:15:05.569Z,23.77
2019-02-28T18:18:09.825Z,18.00
2019-02-28T18:21:25.744Z,22.87
2019-02-28T18:24:22.323Z,21.87
2019-02-28T18:27:24.580Z,22.53
2019-02-28T18:30:34.223Z,22.80
2019-02-28T18:33:10.147Z,19.27
2019-02-28T18:35:41.280Z,22.70
2019-02-28T18:38:14.363Z,20.50
2019-02-28T18:40:49.994Z,25.50
2019-02-28T18:43:23.937Z,27.33
2019-02-28T18:45:56.831Z,27.23
2019-02-28T18:48:29.395Z,16.70
2019-02-28T18:51:02.622Z,20.37
2019-02-28T18:53:34.434Z,17.93
2019-02-28T18:56:07.426Z,19.97
2019-02-28T18:58:41.491Z,23.57
2019-02-28T19:01:14.846Z,20.90
2019-02-28T19:03:49.269Z,20.27
2019-02-28T19:06:23.235Z,22.40
2019-02-28T19:08:55.740Z,21.50
2019-02-28T19:11:29.652Z,21.80
2019-02-28T19:14:02.624Z,27.93
2019-02-28T19:16:33.951Z,35.07
2019-02-28T19:19:09.408Z,39.13
2019-02-28T19:21:43.785Z,26.90
2019-02-28T19:24:19.233Z,23.43
2019-02-28T19:26:50.683Z,27.80
2019-02-28T19:29:40.761Z,19.13
2019-02-28T19:32:13.733Z,22.50
2019-02-28T19:34:49.276Z,21.47
2019-02-28T19:37:20.480Z,26.23
2019-02-28T19:39:51.799Z,22.43
2019-02-28T19:42:24.745Z,18.73
2019-02-28T19:44:56.553Z,19.10
2019-02-28T19:47:28.150Z,22.57
2019-02-28T19:49:59.988Z,20.10
2019-02-28T19:52:33.937Z,23.87
2019-02-28T19:55:08.254Z,22.00
2019-02-28T19:57:42.482Z,20.50
2019-02-28T20:00:15.428Z,21.87
2019-02-28T20:02:48.926Z,26.43
2019-02-28T20:05:25.787Z,19.57
2019-02-28T20:08:00.036Z,27.73
2019-02-28T20:10:32.083Z,20.63
2019-02-28T20:13:06.645Z,18.87
2019-02-28T20:15:42.088Z,23.87
2019-02-28T20:18:16.412Z,27.03
2019-02-28T20:20:49.683Z,31.13
2019-02-28T20:23:24.817Z,21.87
2019-02-28T20:25:57.987Z,28.53
2019-02-28T20:28:30.641Z,18.57
2019-02-28T20:31:06.031Z,19.57
2019-02-28T20:33:38.155Z,22.43
2019-02-28T20:36:11.014Z,21.23
2019-02-28T20:38:44.014Z,18.53
2019-02-28T20:41:15.988Z,22.50
2019-02-28T20:43:48.603Z,22.43
2019-02-28T20:46:21.033Z,24.50
2019-02-28T20:48:55.062Z,22.10
2019-02-28T20:51:26.272Z,20.53
2019-02-28T20:53:59.999Z,21.23
2019-02-28T20:56:33.095Z,23.87
2019-02-28T20:59:08.611Z,19.93
2019-02-28T21:01:45.898Z,21.73
2019-02-28T21:04:19.861Z,21.93
2019-02-28T21:06:54.894Z,24.47
2019-02-28T21:09:27.373Z,20.70
2019-02-28T21:12:01.878Z,23.17
2019-02-28T21:14:34.234Z,23.33
2019-02-28T21:17:09.320Z,21.93
2019-02-28T21:19:41.061Z,26.13
2019-02-28T21:22:15.134Z,20.93
2019-02-28T21:24:47.276Z,30.97
2019-02-28T21:27:19.234Z,23.57
2019-02-28T21:29:51.147Z,26.33
2019-02-28T21:32:23.248Z,26.83
2019-02-28T21:34:54.514Z,30.33
2019-02-28T21:37:27.351Z,25.80
2019-02-28T21:40:00.679Z,26.97
2019-02-28T21:42:32.222Z,25.23
2019-02-28T21:45:05.981Z,27.20
2019-02-28T21:47:38.319Z,22.70
2019-02-28T21:50:11.363Z,26.27
2019-02-28T21:52:43.343Z,22.30
2019-02-28T21:55:16.384Z,21.43
2019-02-28T21:58:08.697Z,22.40
2019-02-28T22:00:41.430Z,25.20
2019-02-28T22:03:15.285Z,21.97
2019-02-28T22:05:49.406Z,22.83
2019-02-28T22:08:22.384Z,22.70
2019-02-28T22:10:56.440Z,26.63
2019-02-28T22:13:29.376Z,27.03
2019-02-28T22:16:02.358Z,30.67
2019-02-28T22:18:34.899Z,28.13
2019-02-28T22:21:08.284Z,30.27
2019-02-28T22:23:41.528Z,27.90
2019-02-28T22:26:14.310Z,23.60
2019-02-28T22:28:46.449Z,26.57
2019-02-28T22:31:35.931Z,28.10
2019-02-28T22:34:18.115Z,27.90
2019-02-28T22:36:51.174Z,26.10
2019-02-28T22:39:23.462Z,27.57
2019-02-28T22:41:58.692Z,25.33
2019-02-28T22:44:30.455Z,24.47
2019-02-28T22:47:04.718Z,25.80
2019-02-28T22:49:38.775Z,24.40
2019-02-28T22:52:11.642Z,25.73
2019-02-28T22:54:44.622Z,25.37
2019-02-28T22:57:19.238Z,25.20
2019-02-28T22:59:50.645Z,28.20
2019-02-28T23:02:22.676Z,36.67
2019-02-28T23:04:57.292Z,35.50
2019-02-28T23:07:29.755Z,26.30
2019-02-28T23:10:02.600Z,28.17
2019-02-28T23:12:35.033Z,23.00
2019-02-28T23:15:08.722Z,24.17
2019-02-28T23:17:41.578Z,27.50
2019-02-28T23:20:15.561Z,30.57
2019-02-28T23:22:47.530Z,25.83
2019-02-28T23:25:19.855Z,26.43
2019-02-28T23:27:53.347Z,27.00
2019-02-28T23:30:55.178Z,36.53
2019-02-28T23:33:27.699Z,27.20
2019-02-28T23:35:59.629Z,29.27
2019-02-28T23:38:31.816Z,30.53
2019-02-28T23:41:05.968Z,27.60
2019-02-28T23:43:38.893Z,26.23
2019-02-28T23:46:11.891Z,31.93
2019-02-28T23:48:43.198Z,28.23
2019-02-28T23:51:15.758Z,26.87
2019-02-28T23:53:48.833Z,31.33
2019-02-28T23:56:20.829Z,27.97
2019-02-28T23:58:54.847Z,33.27
